createdAt,value
2023-10-09T00:01:49.242Z,100891.03
2023-10-09T00:04:21.843Z,100898.31
2023-10-09T00:06:52.077Z,100898.53
2023-10-09T00:09:31.713Z,100900.53
2023-10-09T00:12:11.565Z,100898.16
2023-10-09T00:14:41.990Z,100904.63
2023-10-09T00:17:22.211Z,100899.50
2023-10-09T00:20:01.284Z,100901.38
2023-10-09T00:22:32.018Z,100898.00
2023-10-09T00:25:22.953Z,100911.28
2023-10-09T00:27:55.458Z,100891.09
2023-10-09T00:30:31.443Z,100889.44
2023-10-09T00:33:09.173Z,100886.00
2023-10-09T00:35:43.086Z,100893.03
2023-10-09T00:38:22.083Z,100892.09
2023-10-09T00:40:58.433Z,100877.94
2023-10-09T00:43:32.028Z,100880.69
2023-10-09T00:46:04.774Z,100870.81
2023-10-09T00:48:39.083Z,100867.31
2023-10-09T00:51:17.834Z,100870.03
2023-10-09T00:53:51.757Z,100866.47
2023-10-09T00:56:30.483Z,100868.16
2023-10-09T00:59:09.954Z,100863.81
2023-10-09T01:01:41.659Z,100860.25
2023-10-09T01:04:13.220Z,100864.72
2023-10-09T01:06:48.595Z,100859.34
2023-10-09T01:09:18.955Z,100854.09
2023-10-09T01:12:04.863Z,100844.38
2023-10-09T01:14:42.419Z,100845.31
2023-10-09T01:17:13.349Z,100840.06
2023-10-09T01:19:44.880Z,100833.97
2023-10-09T01:22:17.382Z,100830.44
2023-10-09T01:24:51.790Z,100832.97
2023-10-09T01:27:25.354Z,100828.44
2023-10-09T01:29:55.244Z,100822.19
2023-10-09T01:32:28.102Z,100826.53
2023-10-09T01:34:58.987Z,100819.47
2023-10-09T01:37:30.626Z,100819.47
2023-10-09T01:40:24.624Z,100821.19
2023-10-09T01:42:54.432Z,100815.00
2023-10-09T01:45:30.985Z,100803.28
2023-10-09T01:48:06.754Z,100798.78
2023-10-09T01:50:38.238Z,100806.69
2023-10-09T01:53:09.347Z,100802.09
2023-10-09T01:55:41.989Z,100814.44
2023-10-09T01:58:19.241Z,100819.75
2023-10-09T02:00:51.013Z,100810.00
2023-10-09T02:03:26.362Z,100815.25
2023-10-09T02:06:18.226Z,100818.75
2023-10-09T02:08:50.977Z,100824.06
2023-10-09T02:11:26.215Z,100825.13
2023-10-09T02:14:02.533Z,100834.00
2023-10-09T02:16:43.229Z,100827.88
2023-10-09T02:19:31.051Z,100828.69
2023-10-09T02:22:02.563Z,100822.38
2023-10-09T02:24:46.040Z,100822.28
2023-10-09T02:27:38.930Z,100830.09
2023-10-09T02:30:16.753Z,100824.78
2023-10-09T02:32:50.781Z,100822.13
2023-10-09T02:35:37.893Z,100824.78
2023-10-09T02:38:15.752Z,100812.44
2023-10-09T02:41:05.931Z,100807.09
2023-10-09T02:43:45.881Z,100817.75
2023-10-09T02:46:19.426Z,100802.78
2023-10-09T02:48:52.094Z,100805.59
2023-10-09T02:51:34.032Z,100814.59
2023-10-09T02:54:20.286Z,100815.59
2023-10-09T02:56:57.126Z,100818.41
2023-10-09T02:59:31.320Z,100814.06
2023-10-09T03:02:01.241Z,100816.59
2023-10-09T03:04:32.454Z,100812.84
2023-10-09T03:07:04.914Z,100799.28
2023-10-09T03:09:36.396Z,100794.63
2023-10-09T03:12:11.192Z,100804.94
2023-10-09T03:14:44.951Z,100793.22
2023-10-09T03:17:15.191Z,100801.06
2023-10-09T03:19:47.235Z,100808.09
2023-10-09T03:22:17.131Z,100800.94
2023-10-09T03:24:50.890Z,100798.28
2023-10-09T03:27:22.470Z,100790.13
2023-10-09T03:29:56.246Z,100791.72
2023-10-09T03:32:26.066Z,100783.44
2023-10-09T03:34:56.595Z,100780.47
2023-10-09T03:37:35.581Z,100784.69
2023-10-09T03:40:07.886Z,100780.06
2023-10-09T03:42:39.227Z,100781.63
2023-10-09T03:45:19.804Z,100781.47
2023-10-09T03:47:50.023Z,100777.88
2023-10-09T03:50:28.295Z,100783.19
2023-10-09T03:52:58.760Z,100790.25
2023-10-09T03:55:29.636Z,100778.72
2023-10-09T03:58:00.797Z,100775.97
2023-10-09T04:00:42.393Z,100773.19
2023-10-09T04:03:13.256Z,100770.34
2023-10-09T04:05:44.806Z,100764.78
2023-10-09T04:08:30.480Z,100763.69
2023-10-09T04:11:03.021Z,100766.28
2023-10-09T04:13:37.139Z,100774.22
2023-10-09T04:16:29.693Z,100770.66
2023-10-09T04:19:00.712Z,100762.69
2023-10-09T04:21:35.908Z,100760.03
2023-10-09T04:24:18.695Z,100751.88
2023-10-09T04:26:48.824Z,100761.50
2023-10-09T04:29:25.124Z,100761.41
2023-10-09T04:31:57.871Z,100767.53
2023-10-09T04:34:29.737Z,100762.22
2023-10-09T04:37:21.004Z,100767.47
2023-10-09T04:40:02.202Z,100756.72
2023-10-09T04:42:38.763Z,100758.47
2023-10-09T04:45:22.578Z,100759.22
2023-10-09T04:48:08.228Z,100769.81
2023-10-09T04:50:47.046Z,100763.63
2023-10-09T04:53:24.069Z,100769.81
2023-10-09T04:56:05.976Z,100768.09
2023-10-09T04:58:40.592Z,100768.94
2023-10-09T05:01:24.175Z,100763.63
2023-10-09T05:03:58.462Z,100759.09
2023-10-09T05:06:44.312Z,100745.78
2023-10-09T05:09:16.574Z,100744.84
2023-10-09T05:12:11.246Z,100752.81
2023-10-09T05:14:42.263Z,100744.97
2023-10-09T05:17:17.321Z,100740.59
2023-10-09T05:19:56.288Z,100738.88
2023-10-09T05:22:40.318Z,100741.63
2023-10-09T05:25:17.697Z,100739.91
2023-10-09T05:27:52.380Z,100737.41
2023-10-09T05:30:28.886Z,100737.63
2023-10-09T05:33:00.148Z,100735.28
2023-10-09T05:35:40.969Z,100739.91
2023-10-09T05:38:25.106Z,100742.72
2023-10-09T05:40:55.309Z,100755.31
2023-10-09T05:43:37.922Z,100746.41
2023-10-09T05:46:17.155Z,100762.38
2023-10-09T05:48:56.014Z,100781.00
2023-10-09T05:51:41.054Z,100785.41
2023-10-09T05:54:47.349Z,100780.84
2023-10-09T05:57:29.579Z,100789.63
2023-10-09T06:00:26.692Z,100785.00
2023-10-09T06:03:09.194Z,100789.13
2023-10-09T06:06:03.035Z,100788.03
2023-10-09T06:08:48.412Z,100786.00
2023-10-09T06:11:31.315Z,100768.94
2023-10-09T06:14:14.066Z,100764.16
2023-10-09T06:17:01.103Z,100768.28
2023-10-09T06:19:33.144Z,100778.66
2023-10-09T06:22:31.353Z,100788.97
2023-10-09T06:25:10.297Z,100791.41
2023-10-09T06:27:52.348Z,100803.63
2023-10-09T06:30:29.169Z,100809.63
2023-10-09T06:33:21.392Z,100813.94
2023-10-09T06:35:58.086Z,100830.63
2023-10-09T06:38:45.261Z,100842.84
2023-10-09T06:41:30.135Z,100838.16
2023-10-09T06:44:11.320Z,100844.78
2023-10-09T06:46:45.270Z,100853.06
2023-10-09T06:49:27.343Z,100847.97
2023-10-09T06:52:14.901Z,100844.56
2023-10-09T06:54:50.860Z,100853.53
2023-10-09T06:57:51.317Z,100850.09
2023-10-09T07:00:33.597Z,100850.44
2023-10-09T07:03:12.914Z,100835.81
2023-10-09T07:06:01.943Z,100824.78
2023-10-09T07:08:33.545Z,100821.84
2023-10-09T07:11:22.395Z,100831.47
2023-10-09T07:13:57.160Z,100848.28
2023-10-09T07:16:30.301Z,100834.75
2023-10-09T07:19:10.984Z,100838.22
2023-10-09T07:21:40.868Z,100841.53
2023-10-09T07:24:18.808Z,100846.63
2023-10-09T07:26:54.676Z,100850.28
2023-10-09T07:29:29.131Z,100844.91
2023-10-09T07:32:13.873Z,100837.16
2023-10-09T07:35:04.978Z,100840.94
2023-10-09T07:37:36.646Z,100838.34
2023-10-09T07:40:08.378Z,100835.34
2023-10-09T07:42:45.387Z,100842.69
2023-10-09T07:45:30.372Z,100849.50
2023-10-09T07:48:07.114Z,100854.31
2023-10-09T07:50:50.091Z,100853.44
2023-10-09T07:53:27.422Z,100837.78
2023-10-09T07:56:00.118Z,100852.13
2023-10-09T07:58:29.920Z,100840.94
2023-10-09T08:01:17.433Z,100836.97
2023-10-09T08:03:58.732Z,100849.59
2023-10-09T08:06:41.397Z,100844.53
2023-10-09T08:09:47.481Z,100840.16
2023-10-09T08:12:32.390Z,100823.75
2023-10-09T08:15:22.200Z,100830.13
2023-10-09T08:18:00.520Z,100838.94
2023-10-09T08:20:29.173Z,100835.69
2023-10-09T08:22:59.769Z,100821.72
2023-10-09T08:25:28.383Z,100820.22
2023-10-09T08:27:59.438Z,100818.72
2023-10-09T08:30:30.777Z,100810.13
2023-10-09T08:35:55.474Z,100855.44
2023-10-09T08:38:28.157Z,100878.56
2023-10-09T08:40:59.999Z,100891.50
2023-10-09T08:43:32.504Z,100896.25
2023-10-09T08:46:04.988Z,100914.19
2023-10-09T08:48:40.894Z,100910.31
2023-10-09T08:51:10.763Z,100914.19
2023-10-09T08:53:44.130Z,100892.19
2023-10-09T08:56:16.123Z,100894.97
2023-10-09T08:58:45.915Z,100891.59
2023-10-09T09:01:23.066Z,100874.16
2023-10-09T09:03:57.040Z,100830.13
2023-10-09T09:06:28.287Z,100795.31
2023-10-09T09:09:11.418Z,100799.81
2023-10-09T09:11:49.917Z,100807.88
2023-10-09T09:14:23.660Z,100792.97
2023-10-09T09:16:53.766Z,100801.59
2023-10-09T09:19:39.318Z,100796.28
2023-10-09T09:22:15.581Z,100804.50
2023-10-09T09:25:01.966Z,100795.03
2023-10-09T09:27:53.998Z,100775.59
2023-10-09T09:30:33.066Z,100767.38
2023-10-09T09:33:15.647Z,100769.19
2023-10-09T09:36:00.192Z,100759.19
2023-10-09T09:38:43.033Z,100755.91
2023-10-09T09:41:13.734Z,100768.88
2023-10-09T09:43:47.875Z,100771.88
2023-10-09T09:46:20.561Z,100762.19
2023-10-09T09:48:55.410Z,100786.13
2023-10-09T09:51:30.187Z,100782.31
2023-10-09T09:54:00.222Z,100795.78
2023-10-09T09:56:31.593Z,100790.03
2023-10-09T09:59:03.076Z,100782.06
2023-10-09T10:01:36.660Z,100784.78
2023-10-09T10:04:13.690Z,100774.44
2023-10-09T10:06:49.358Z,100791.78
2023-10-09T10:09:42.979Z,100785.56
2023-10-09T10:12:15.966Z,100788.03
2023-10-09T10:15:08.136Z,100795.66
2023-10-09T10:18:11.866Z,100796.50
2023-10-09T10:21:17.560Z,100792.56
2023-10-09T10:23:50.848Z,100786.94
2023-10-09T10:26:27.065Z,100790.94
2023-10-09T10:29:24.209Z,100782.25
2023-10-09T10:32:02.282Z,100777.47
2023-10-09T10:34:59.023Z,100786.25
2023-10-09T10:37:45.749Z,100793.63
2023-10-09T10:40:39.699Z,100787.72
2023-10-09T10:43:15.004Z,100797.53
2023-10-09T10:45:47.528Z,100808.16
2023-10-09T10:48:24.811Z,100814.88
2023-10-09T10:51:02.522Z,100800.75
2023-10-09T10:53:36.404Z,100812.84
2023-10-09T10:56:20.117Z,100815.69
2023-10-09T10:59:13.455Z,100824.75
2023-10-09T11:01:56.126Z,100823.91
2023-10-09T11:04:40.184Z,100822.81
2023-10-09T11:07:14.065Z,100819.84
2023-10-09T11:10:07.260Z,100824.25
2023-10-09T11:13:09.474Z,100824.13
2023-10-09T11:15:57.327Z,100813.91
2023-10-09T11:18:29.126Z,100810.34
2023-10-09T11:21:24.315Z,100810.97
2023-10-09T11:24:10.714Z,100813.66
2023-10-09T11:26:41.902Z,100808.13
2023-10-09T11:29:24.641Z,100813.53
2023-10-09T11:32:02.654Z,100811.81
2023-10-09T11:34:33.322Z,100813.06
2023-10-09T11:37:02.115Z,100810.34
2023-10-09T11:39:37.098Z,100811.81
2023-10-09T11:42:05.864Z,100807.25
2023-10-09T11:44:55.533Z,100801.00
2023-10-09T11:47:34.215Z,100803.44
2023-10-09T11:50:15.261Z,100803.19
2023-10-09T11:53:10.200Z,100790.69
2023-10-09T11:55:37.978Z,100790.22
2023-10-09T11:58:10.101Z,100794.78
2023-10-09T12:00:59.427Z,100790.22
2023-10-09T12:03:31.442Z,100795.91
2023-10-09T12:06:05.574Z,100797.00
2023-10-09T12:08:35.930Z,100801.78
2023-10-09T12:11:10.007Z,100803.78
2023-10-09T12:13:40.464Z,100801.22
2023-10-09T12:16:16.521Z,100793.13
2023-10-09T12:18:54.304Z,100794.97
2023-10-09T12:21:24.825Z,100792.03
2023-10-09T12:24:01.536Z,100785.63
2023-10-09T12:26:36.549Z,100790.50
2023-10-09T12:29:12.693Z,100782.88
2023-10-09T12:31:46.718Z,100787.13
2023-10-09T12:34:18.695Z,100791.66
2023-10-09T12:36:50.847Z,100781.84
2023-10-09T12:39:21.749Z,100783.72
2023-10-09T12:41:54.821Z,100782.00
2023-10-09T12:44:28.357Z,100771.22
2023-10-09T12:47:05.278Z,100765.81
2023-10-09T12:49:35.216Z,100762.97
2023-10-09T12:54:34.829Z,100762.72
2023-10-09T12:57:04.847Z,100783.56
2023-10-09T12:59:36.699Z,100782.13
2023-10-09T13:02:12.590Z,100785.09
2023-10-09T13:04:44.233Z,100778.84
2023-10-09T13:07:14.230Z,100781.66
2023-10-09T13:10:06.483Z,100784.22
2023-10-09T13:12:39.716Z,100785.09
2023-10-09T13:15:11.991Z,100792.22
2023-10-09T13:17:44.595Z,100795.16
2023-10-09T13:20:17.758Z,100799.22
2023-10-09T13:22:49.845Z,100807.00
2023-10-09T13:25:35.911Z,100808.50
2023-10-09T13:28:06.652Z,100805.47
2023-10-09T13:30:41.599Z,100797.03
2023-10-09T13:33:18.671Z,100797.56
2023-10-09T13:35:52.116Z,100787.03
2023-10-09T13:38:23.242Z,100782.63
2023-10-09T13:41:02.682Z,100776.75
2023-10-09T13:43:32.642Z,100786.22
2023-10-09T13:46:05.233Z,100788.56
2023-10-09T13:48:39.696Z,100777.91
2023-10-09T13:51:15.201Z,100783.44
2023-10-09T13:53:49.202Z,100780.41
2023-10-09T13:56:22.024Z,100778.19
2023-10-09T13:58:53.365Z,100776.25
2023-10-09T14:01:33.842Z,100788.66
2023-10-09T14:04:07.571Z,100775.09
2023-10-09T14:06:38.539Z,100777.28
2023-10-09T14:09:11.002Z,100775.84
2023-10-09T14:11:45.423Z,100783.06
2023-10-09T14:14:17.578Z,100785.75
2023-10-09T14:16:47.857Z,100780.25
2023-10-09T14:19:22.417Z,100785.84
2023-10-09T14:21:52.720Z,100793.28
2023-10-09T14:24:27.599Z,100790.97
2023-10-09T14:26:58.065Z,100774.56
2023-10-09T14:29:28.179Z,100775.41
2023-10-09T14:32:04.188Z,100778.38
2023-10-09T14:34:38.098Z,100779.13
2023-10-09T14:37:08.316Z,100781.56
2023-10-09T14:39:38.300Z,100774.72
2023-10-09T14:42:10.953Z,100778.13
2023-10-09T14:44:41.972Z,100777.78
2023-10-09T14:47:12.231Z,100771.16
2023-10-09T14:49:48.282Z,100759.28
2023-10-09T14:52:21.492Z,100763.66
2023-10-09T14:54:51.961Z,100764.41
2023-10-09T14:57:21.759Z,100756.34
2023-10-09T14:59:51.537Z,100761.09
2023-10-09T15:02:21.415Z,100757.56
2023-10-09T15:04:54.303Z,100757.56
2023-10-09T15:07:39.771Z,100755.00
2023-10-09T15:10:16.572Z,100754.38
2023-10-09T15:12:48.389Z,100755.50
2023-10-09T15:15:18.660Z,100758.31
2023-10-09T15:17:49.907Z,100752.22
2023-10-09T15:20:22.647Z,100756.00
2023-10-09T15:22:52.767Z,100757.13
2023-10-09T15:25:22.599Z,100757.25
2023-10-09T15:27:52.402Z,100763.72
2023-10-09T15:30:22.173Z,100772.16
2023-10-09T15:32:52.062Z,100769.94
2023-10-09T15:35:24.654Z,100778.63
2023-10-09T15:37:55.252Z,100777.16
2023-10-09T15:40:28.798Z,100771.19
2023-10-09T15:43:00.421Z,100782.09
2023-10-09T15:45:31.020Z,100782.19
2023-10-09T15:48:03.516Z,100781.34
2023-10-09T15:50:36.023Z,100785.88
2023-10-09T15:53:07.743Z,100779.88
2023-10-09T15:55:39.453Z,100776.69
2023-10-09T15:58:10.049Z,100771.66
2023-10-09T16:00:40.671Z,100774.84
2023-10-09T16:03:11.537Z,100785.22
2023-10-09T16:05:44.198Z,100781.31
2023-10-09T16:08:14.085Z,100777.72
2023-10-09T16:10:43.978Z,100779.56
2023-10-09T16:13:14.445Z,100779.59
2023-10-09T16:15:46.708Z,100794.84
2023-10-09T16:18:16.510Z,100788.69
2023-10-09T16:20:48.917Z,100791.53
2023-10-09T16:23:21.241Z,100787.31
2023-10-09T16:25:51.159Z,100783.94
2023-10-09T16:28:21.179Z,100797.53
2023-10-09T16:30:51.984Z,100795.91
2023-10-09T16:33:21.766Z,100796.03
2023-10-09T16:35:57.613Z,100786.31
2023-10-09T16:38:27.414Z,100795.19
2023-10-09T16:40:58.274Z,100808.38
2023-10-09T16:43:29.656Z,100810.00
2023-10-09T16:46:02.487Z,100814.16
2023-10-09T16:48:32.304Z,100811.16
2023-10-09T16:51:08.661Z,100811.66
2023-10-09T16:53:40.091Z,100816.47
2023-10-09T16:56:13.392Z,100820.22
2023-10-09T16:58:43.773Z,100817.75
2023-10-09T17:01:15.370Z,100827.59
2023-10-09T17:03:48.903Z,100825.97
2023-10-09T17:06:21.763Z,100827.91
2023-10-09T17:08:53.827Z,100824.28
2023-10-09T17:11:25.899Z,100821.50
2023-10-09T17:13:58.992Z,100816.97
2023-10-09T17:16:30.376Z,100827.81
2023-10-09T17:19:02.139Z,100821.72
2023-10-09T17:21:37.551Z,100823.63
2023-10-09T17:24:12.428Z,100830.91
2023-10-09T17:26:46.618Z,100834.66
2023-10-09T17:29:18.204Z,100828.53
2023-10-09T17:31:48.359Z,100843.75
2023-10-09T17:34:19.732Z,100845.66
2023-10-09T17:36:52.227Z,100842.13
2023-10-09T17:39:27.470Z,100851.91
2023-10-09T17:42:08.733Z,100847.50
2023-10-09T17:44:40.151Z,100854.69
2023-10-09T17:47:12.202Z,100852.84
2023-10-09T17:49:42.207Z,100860.78
2023-10-09T17:52:15.996Z,100862.41
2023-10-09T17:54:46.137Z,100858.88
2023-10-09T17:57:16.789Z,100856.19
2023-10-09T17:59:47.098Z,100856.19
2023-10-09T18:02:22.609Z,100860.47
2023-10-09T18:04:55.299Z,100867.44
2023-10-09T18:07:40.693Z,100878.72
2023-10-09T18:10:11.821Z,100877.66
2023-10-09T18:12:51.950Z,100881.06
2023-10-09T18:15:22.133Z,100873.81
2023-10-09T18:18:21.100Z,100878.09
2023-10-09T18:20:51.426Z,100881.75
2023-10-09T18:23:24.142Z,100880.69
2023-10-09T18:26:08.624Z,100878.84
2023-10-09T18:28:39.491Z,100883.25
2023-10-09T18:31:28.629Z,100880.47
2023-10-09T18:33:59.748Z,100887.56
2023-10-09T18:36:32.883Z,100882.19
2023-10-09T18:39:05.739Z,100887.56
2023-10-09T18:41:38.431Z,100884.03
2023-10-09T18:44:11.376Z,100886.59
2023-10-09T18:46:45.696Z,100891.97
2023-10-09T18:49:17.170Z,100883.91
2023-10-09T18:51:49.635Z,100881.25
2023-10-09T18:54:22.210Z,100874.25
2023-10-09T18:56:59.063Z,100882.19
2023-10-09T18:59:31.445Z,100880.47
2023-10-09T19:02:04.065Z,100877.78
2023-10-09T19:04:37.194Z,100879.72
2023-10-09T19:07:10.238Z,100873.50
2023-10-09T19:09:43.288Z,100878.97
2023-10-09T19:12:19.843Z,100871.13
2023-10-09T19:14:54.778Z,100880.22
2023-10-09T19:17:27.100Z,100869.84
2023-10-09T19:20:02.469Z,100872.78
2023-10-09T19:22:34.630Z,100876.75
2023-10-09T19:25:28.223Z,100865.56
2023-10-09T19:28:01.510Z,100868.78
2023-10-09T19:30:34.950Z,100879.88
2023-10-09T19:33:10.977Z,100874.25
2023-10-09T19:35:43.592Z,100878.41
2023-10-09T19:38:17.262Z,100870.00
2023-10-09T19:40:55.550Z,100877.47
2023-10-09T19:43:28.977Z,100876.13
2023-10-09T19:46:07.587Z,100883.59
2023-10-09T19:48:40.583Z,100885.81
2023-10-09T19:51:13.851Z,100896.84
2023-10-09T19:53:44.599Z,100884.81
2023-10-09T19:56:20.147Z,100892.34
2023-10-09T19:58:50.239Z,100891.78
2023-10-09T20:01:20.790Z,100885.88
2023-10-09T20:03:53.373Z,100891.28
2023-10-09T20:06:25.277Z,100898.47
2023-10-09T20:08:55.253Z,100902.00
2023-10-09T20:11:29.196Z,100905.53
2023-10-09T20:14:02.102Z,100904.59
2023-10-09T20:16:38.554Z,100899.25
2023-10-09T20:19:10.076Z,100895.78
2023-10-09T20:21:41.611Z,100899.59
2023-10-09T20:24:15.234Z,100903.41
2023-10-09T20:26:52.283Z,100907.25
2023-10-09T20:29:22.322Z,100911.91
2023-10-09T20:31:53.235Z,100915.44
2023-10-09T20:34:26.805Z,100921.75
2023-10-09T20:36:58.694Z,100929.75
2023-10-09T20:39:35.076Z,100925.38
2023-10-09T20:42:12.912Z,100922.88
2023-10-09T20:44:43.820Z,100928.53
2023-10-09T20:47:16.083Z,100931.34
2023-10-09T20:49:50.121Z,100935.25
2023-10-09T20:52:21.946Z,100923.22
2023-10-09T20:54:51.782Z,100920.78
2023-10-09T20:57:24.467Z,100930.81
2023-10-09T20:59:54.734Z,100932.91
2023-10-09T21:02:26.881Z,100933.94
2023-10-09T21:04:58.585Z,100929.63
2023-10-09T21:07:31.397Z,100922.75
2023-10-09T21:10:04.349Z,100922.06
2023-10-09T21:12:37.163Z,100926.72
2023-10-09T21:15:10.915Z,100924.44
2023-10-09T21:17:41.654Z,100920.16
2023-10-09T21:20:19.957Z,100921.28
2023-10-09T21:22:55.818Z,100923.47
2023-10-09T21:25:32.818Z,100922.16
2023-10-09T21:28:07.515Z,100924.22
2023-10-09T21:30:39.113Z,100921.91
2023-10-09T21:33:12.596Z,100923.22
2023-10-09T21:35:45.540Z,100919.94
2023-10-09T21:38:15.475Z,100914.16
2023-10-09T21:40:49.776Z,100916.31
2023-10-09T21:43:22.458Z,100913.09
2023-10-09T21:45:53.319Z,100921.50
2023-10-09T21:48:23.566Z,100920.13
2023-10-09T21:50:53.703Z,100921.34
2023-10-09T21:53:23.896Z,100923.38
2023-10-09T21:55:53.790Z,100925.28
2023-10-09T21:58:26.817Z,100917.38
2023-10-09T22:00:58.047Z,100910.44
2023-10-09T22:03:28.947Z,100916.81
2023-10-09T22:06:00.383Z,100912.66
2023-10-09T22:08:34.621Z,100911.09
2023-10-09T22:11:08.795Z,100909.59
2023-10-09T22:13:41.935Z,100916.03
2023-10-09T22:16:12.661Z,100901.22
2023-10-09T22:18:43.949Z,100906.72
2023-10-09T22:21:15.218Z,100910.47
2023-10-09T22:23:47.592Z,100905.25
2023-10-09T22:26:21.509Z,100906.34
2023-10-09T22:28:55.490Z,100904.69
2023-10-09T22:31:30.104Z,100904.91
2023-10-09T22:34:11.858Z,100910.41
2023-10-09T22:36:54.266Z,100907.09
2023-10-09T22:39:28.425Z,100903.84
2023-10-09T22:42:09.042Z,100910.28
2023-10-09T22:44:44.767Z,100905.22
2023-10-09T22:47:16.226Z,100909.94
2023-10-09T22:49:54.129Z,100914.69
2023-10-09T22:52:28.122Z,100921.19
2023-10-09T22:55:01.078Z,100918.84
2023-10-09T22:57:32.051Z,100914.69
2023-10-09T23:00:05.087Z,100907.00
2023-10-09T23:02:58.305Z,100907.22
2023-10-09T23:05:32.752Z,100909.31
2023-10-09T23:08:03.599Z,100920.97
2023-10-09T23:10:34.786Z,100906.88
2023-10-09T23:13:17.998Z,100912.34
2023-10-09T23:16:08.168Z,100911.63
2023-10-09T23:18:44.454Z,100914.50
2023-10-09T23:21:24.549Z,100915.59
2023-10-09T23:23:52.146Z,100909.63
2023-10-09T23:26:33.931Z,100904.50
2023-10-09T23:29:10.635Z,100912.63
2023-10-09T23:31:58.543Z,100913.63
2023-10-09T23:34:34.265Z,100911.13
2023-10-09T23:37:07.260Z,100907.59
2023-10-09T23:39:54.584Z,100910.31
2023-10-09T23:42:29.621Z,100909.47
2023-10-09T23:45:06.352Z,100912.22
2023-10-09T23:47:42.693Z,100915.78
2023-10-09T23:50:17.481Z,100914.13
2023-10-09T23:52:48.286Z,100909.81
2023-10-09T23:55:29.320Z,100909.97
2023-10-09T23:58:15.581Z,100908.38
